sensor_id;sensor_type;location;lat;lon;timestamp;P1;durP1;ratioP1;P2;durP2;ratioP2
64907;SDS011;69061;52.236;5.188;2023-07-20T00:02:00;4.25;;;3.50;;
64907;SDS011;69061;52.236;5.188;2023-07-20T00:04:27;3.70;;;3.05;;
64907;SDS011;69061;52.236;5.188;2023-07-20T00:06:54;4.10;;;3.20;;
64907;SDS011;69061;52.236;5.188;2023-07-20T00:09:22;3.05;;;2.70;;
64907;SDS011;69061;52.236;5.188;2023-07-20T00:11:50;6.05;;;3.15;;
64907;SDS011;69061;52.236;5.188;2023-07-20T00:14:17;4.65;;;3.40;;
64907;SDS011;69061;52.236;5.188;2023-07-20T00:16:45;4.47;;;3.05;;
64907;SDS011;69061;52.236;5.188;2023-07-20T00:19:14;3.60;;;3.05;;
64907;SDS011;69061;52.236;5.188;2023-07-20T00:21:42;5.13;;;2.90;;
64907;SDS011;69061;52.236;5.188;2023-07-20T00:24:09;5.55;;;3.33;;
64907;SDS011;69061;52.236;5.188;2023-07-20T00:26:39;4.10;;;2.83;;
64907;SDS011;69061;52.236;5.188;2023-07-20T00:29:06;5.22;;;3.38;;
64907;SDS011;69061;52.236;5.188;2023-07-20T00:31:32;5.30;;;3.17;;
64907;SDS011;69061;52.236;5.188;2023-07-20T00:34:02;5.28;;;2.80;;
64907;SDS011;69061;52.236;5.188;2023-07-20T00:36:29;4.15;;;2.95;;
64907;SDS011;69061;52.236;5.188;2023-07-20T00:38:56;3.00;;;2.70;;
64907;SDS011;69061;52.236;5.188;2023-07-20T00:41:22;3.97;;;3.10;;
64907;SDS011;69061;52.236;5.188;2023-07-20T00:43:54;3.63;;;2.90;;
64907;SDS011;69061;52.236;5.188;2023-07-20T00:46:22;5.43;;;3.28;;
64907;SDS011;69061;52.236;5.188;2023-07-20T00:48:50;4.93;;;3.38;;
64907;SDS011;69061;52.236;5.188;2023-07-20T00:51:18;5.47;;;3.17;;
64907;SDS011;69061;52.236;5.188;2023-07-20T00:53:45;2.97;;;2.67;;
64907;SDS011;69061;52.236;5.188;2023-07-20T00:56:12;3.40;;;3.10;;
64907;SDS011;69061;52.236;5.188;2023-07-20T00:58:39;5.63;;;3.28;;
64907;SDS011;69061;52.236;5.188;2023-07-20T01:01:08;4.97;;;3.30;;
64907;SDS011;69061;52.236;5.188;2023-07-20T01:03:35;5.70;;;3.33;;
64907;SDS011;69061;52.236;5.188;2023-07-20T01:06:04;4.40;;;3.22;;
64907;SDS011;69061;52.236;5.188;2023-07-20T01:08:43;6.07;;;3.38;;
64907;SDS011;69061;52.236;5.188;2023-07-20T01:11:21;3.83;;;3.33;;
64907;SDS011;69061;52.236;5.188;2023-07-20T01:13:56;4.80;;;3.60;;
64907;SDS011;69061;52.236;5.188;2023-07-20T01:16:26;6.57;;;3.33;;
64907;SDS011;69061;52.236;5.188;2023-07-20T01:18:53;4.82;;;3.85;;
64907;SDS011;69061;52.236;5.188;2023-07-20T01:21:21;3.88;;;3.00;;
64907;SDS011;69061;52.236;5.188;2023-07-20T01:24:00;7.10;;;3.78;;
64907;SDS011;69061;52.236;5.188;2023-07-20T01:27:00;5.28;;;3.53;;
64907;SDS011;69061;52.236;5.188;2023-07-20T01:29:51;8.05;;;3.70;;
64907;SDS011;69061;52.236;5.188;2023-07-20T01:32:30;3.67;;;3.15;;
64907;SDS011;69061;52.236;5.188;2023-07-20T01:34:59;6.88;;;3.63;;
64907;SDS011;69061;52.236;5.188;2023-07-20T01:37:28;5.07;;;3.72;;
64907;SDS011;69061;52.236;5.188;2023-07-20T01:39:57;4.32;;;3.90;;
64907;SDS011;69061;52.236;5.188;2023-07-20T01:42:24;4.63;;;3.45;;
64907;SDS011;69061;52.236;5.188;2023-07-20T01:44:52;4.10;;;3.08;;
64907;SDS011;69061;52.236;5.188;2023-07-20T01:47:19;6.07;;;3.80;;
64907;SDS011;69061;52.236;5.188;2023-07-20T01:49:47;4.20;;;3.42;;
64907;SDS011;69061;52.236;5.188;2023-07-20T01:52:14;6.35;;;3.50;;
64907;SDS011;69061;52.236;5.188;2023-07-20T01:54:41;6.13;;;3.63;;
64907;SDS011;69061;52.236;5.188;2023-07-20T01:57:08;7.53;;;3.70;;
64907;SDS011;69061;52.236;5.188;2023-07-20T01:59:35;5.55;;;3.75;;
64907;SDS011;69061;52.236;5.188;2023-07-20T02:02:02;6.65;;;4.03;;
64907;SDS011;69061;52.236;5.188;2023-07-20T02:04:30;4.90;;;3.70;;
64907;SDS011;69061;52.236;5.188;2023-07-20T02:06:58;4.15;;;3.65;;
64907;SDS011;69061;52.236;5.188;2023-07-20T02:09:28;6.22;;;3.70;;
64907;SDS011;69061;52.236;5.188;2023-07-20T02:11:56;5.80;;;4.40;;
64907;SDS011;69061;52.236;5.188;2023-07-20T02:14:22;10.05;;;3.90;;
64907;SDS011;69061;52.236;5.188;2023-07-20T02:16:50;5.85;;;4.80;;
64907;SDS011;69061;52.236;5.188;2023-07-20T02:19:24;5.90;;;4.20;;
64907;SDS011;69061;52.236;5.188;2023-07-20T02:21:51;5.47;;;3.53;;
64907;SDS011;69061;52.236;5.188;2023-07-20T02:24:19;4.60;;;4.10;;
64907;SDS011;69061;52.236;5.188;2023-07-20T02:26:47;8.40;;;4.53;;
64907;SDS011;69061;52.236;5.188;2023-07-20T02:29:17;7.65;;;4.47;;
64907;SDS011;69061;52.236;5.188;2023-07-20T02:31:43;5.70;;;4.22;;
64907;SDS011;69061;52.236;5.188;2023-07-20T02:34:10;5.88;;;4.38;;
64907;SDS011;69061;52.236;5.188;2023-07-20T02:36:38;6.00;;;3.92;;
64907;SDS011;69061;52.236;5.188;2023-07-20T02:39:07;6.03;;;4.50;;
64907;SDS011;69061;52.236;5.188;2023-07-20T02:41:35;5.88;;;4.57;;
64907;SDS011;69061;52.236;5.188;2023-07-20T02:44:02;6.03;;;4.25;;
64907;SDS011;69061;52.236;5.188;2023-07-20T02:46:30;7.13;;;4.50;;
64907;SDS011;69061;52.236;5.188;2023-07-20T02:48:57;6.53;;;4.40;;
64907;SDS011;69061;52.236;5.188;2023-07-20T02:51:24;7.03;;;4.43;;
64907;SDS011;69061;52.236;5.188;2023-07-20T02:53:50;7.57;;;4.80;;
64907;SDS011;69061;52.236;5.188;2023-07-20T02:56:17;7.03;;;4.63;;
64907;SDS011;69061;52.236;5.188;2023-07-20T02:58:45;6.68;;;4.40;;
64907;SDS011;69061;52.236;5.188;2023-07-20T03:01:12;5.70;;;4.38;;
64907;SDS011;69061;52.236;5.188;2023-07-20T03:03:40;6.00;;;4.45;;
64907;SDS011;69061;52.236;5.188;2023-07-20T03:06:11;6.97;;;4.18;;
64907;SDS011;69061;52.236;5.188;2023-07-20T03:08:39;5.25;;;4.15;;
64907;SDS011;69061;52.236;5.188;2023-07-20T03:11:12;6.35;;;4.68;;
64907;SDS011;69061;52.236;5.188;2023-07-20T03:13:40;7.05;;;4.47;;
64907;SDS011;69061;52.236;5.188;2023-07-20T03:16:09;7.97;;;4.30;;
64907;SDS011;69061;52.236;5.188;2023-07-20T03:18:37;8.27;;;5.00;;
64907;SDS011;69061;52.236;5.188;2023-07-20T03:21:04;6.93;;;4.47;;
64907;SDS011;69061;52.236;5.188;2023-07-20T03:23:31;5.80;;;4.63;;
64907;SDS011;69061;52.236;5.188;2023-07-20T03:25:58;7.13;;;4.53;;
64907;SDS011;69061;52.236;5.188;2023-07-20T03:28:26;6.90;;;4.60;;
64907;SDS011;69061;52.236;5.188;2023-07-20T03:30:53;9.25;;;5.03;;
64907;SDS011;69061;52.236;5.188;2023-07-20T03:33:24;5.78;;;4.70;;
64907;SDS011;69061;52.236;5.188;2023-07-20T03:35:52;9.45;;;4.55;;
64907;SDS011;69061;52.236;5.188;2023-07-20T03:38:21;5.65;;;4.20;;
64907;SDS011;69061;52.236;5.188;2023-07-20T03:40:49;7.55;;;4.70;;
64907;SDS011;69061;52.236;5.188;2023-07-20T03:43:16;8.90;;;4.50;;
64907;SDS011;69061;52.236;5.188;2023-07-20T03:45:43;6.70;;;4.22;;
64907;SDS011;69061;52.236;5.188;2023-07-20T03:48:11;7.03;;;4.05;;
64907;SDS011;69061;52.236;5.188;2023-07-20T03:50:39;6.10;;;4.35;;
64907;SDS011;69061;52.236;5.188;2023-07-20T03:53:06;6.88;;;4.43;;
64907;SDS011;69061;52.236;5.188;2023-07-20T03:55:33;6.95;;;4.32;;
64907;SDS011;69061;52.236;5.188;2023-07-20T03:58:00;8.23;;;4.25;;
64907;SDS011;69061;52.236;5.188;2023-07-20T04:00:26;6.72;;;4.15;;
64907;SDS011;69061;52.236;5.188;2023-07-20T04:02:53;10.13;;;4.13;;
64907;SDS011;69061;52.236;5.188;2023-07-20T04:05:21;10.45;;;4.75;;
64907;SDS011;69061;52.236;5.188;2023-07-20T04:07:49;6.82;;;3.97;;
64907;SDS011;69061;52.236;5.188;2023-07-20T04:10:16;6.25;;;4.38;;
64907;SDS011;69061;52.236;5.188;2023-07-20T04:12:43;8.35;;;4.30;;
64907;SDS011;69061;52.236;5.188;2023-07-20T04:15:12;7.38;;;4.57;;
64907;SDS011;69061;52.236;5.188;2023-07-20T04:17:39;6.85;;;4.28;;
64907;SDS011;69061;52.236;5.188;2023-07-20T04:20:07;12.77;;;4.28;;
64907;SDS011;69061;52.236;5.188;2023-07-20T04:22:34;11.68;;;4.45;;
64907;SDS011;69061;52.236;5.188;2023-07-20T04:25:03;7.60;;;4.30;;
64907;SDS011;69061;52.236;5.188;2023-07-20T04:27:31;7.53;;;4.28;;
64907;SDS011;69061;52.236;5.188;2023-07-20T04:29:58;11.98;;;4.25;;
64907;SDS011;69061;52.236;5.188;2023-07-20T04:32:26;5.80;;;4.38;;
64907;SDS011;69061;52.236;5.188;2023-07-20T04:34:53;5.90;;;3.92;;
64907;SDS011;69061;52.236;5.188;2023-07-20T04:37:20;5.25;;;3.78;;
64907;SDS011;69061;52.236;5.188;2023-07-20T04:39:47;6.32;;;3.97;;
64907;SDS011;69061;52.236;5.188;2023-07-20T04:42:16;8.80;;;4.10;;
64907;SDS011;69061;52.236;5.188;2023-07-20T04:44:42;6.93;;;3.47;;
64907;SDS011;69061;52.236;5.188;2023-07-20T04:47:09;6.75;;;4.30;;
64907;SDS011;69061;52.236;5.188;2023-07-20T04:49:35;7.90;;;4.10;;
64907;SDS011;69061;52.236;5.188;2023-07-20T04:52:02;6.10;;;4.10;;
64907;SDS011;69061;52.236;5.188;2023-07-20T04:54:30;5.93;;;4.00;;
64907;SDS011;69061;52.236;5.188;2023-07-20T04:56:57;5.82;;;3.90;;
64907;SDS011;69061;52.236;5.188;2023-07-20T04:59:25;8.02;;;4.30;;
64907;SDS011;69061;52.236;5.188;2023-07-20T05:01:51;5.40;;;3.85;;
64907;SDS011;69061;52.236;5.188;2023-07-20T05:04:19;5.13;;;3.47;;
64907;SDS011;69061;52.236;5.188;2023-07-20T05:06:46;5.85;;;3.45;;
64907;SDS011;69061;52.236;5.188;2023-07-20T05:09:13;5.30;;;3.45;;
64907;SDS011;69061;52.236;5.188;2023-07-20T05:11:40;4.82;;;3.58;;
64907;SDS011;69061;52.236;5.188;2023-07-20T05:14:10;5.82;;;3.33;;
64907;SDS011;69061;52.236;5.188;2023-07-20T05:16:39;5.72;;;3.53;;
64907;SDS011;69061;52.236;5.188;2023-07-20T05:19:08;5.53;;;3.80;;
64907;SDS011;69061;52.236;5.188;2023-07-20T05:21:35;4.97;;;3.55;;
64907;SDS011;69061;52.236;5.188;2023-07-20T05:24:02;5.32;;;3.10;;
64907;SDS011;69061;52.236;5.188;2023-07-20T05:26:30;5.35;;;3.20;;
64907;SDS011;69061;52.236;5.188;2023-07-20T05:28:58;5.35;;;3.03;;
64907;SDS011;69061;52.236;5.188;2023-07-20T05:31:25;5.60;;;3.35;;
64907;SDS011;69061;52.236;5.188;2023-07-20T05:33:53;3.55;;;3.03;;
64907;SDS011;69061;52.236;5.188;2023-07-20T05:36:20;4.05;;;3.05;;
64907;SDS011;69061;52.236;5.188;2023-07-20T05:38:47;4.35;;;3.15;;
64907;SDS011;69061;52.236;5.188;2023-07-20T05:41:14;8.65;;;3.25;;
64907;SDS011;69061;52.236;5.188;2023-07-20T05:43:41;4.43;;;3.15;;
64907;SDS011;69061;52.236;5.188;2023-07-20T05:46:08;4.80;;;2.80;;
64907;SDS011;69061;52.236;5.188;2023-07-20T05:48:35;3.10;;;2.70;;
64907;SDS011;69061;52.236;5.188;2023-07-20T05:51:03;7.25;;;3.00;;
64907;SDS011;69061;52.236;5.188;2023-07-20T05:53:30;6.05;;;2.97;;
64907;SDS011;69061;52.236;5.188;2023-07-20T05:55:57;6.07;;;3.20;;
64907;SDS011;69061;52.236;5.188;2023-07-20T05:58:24;6.00;;;2.70;;
64907;SDS011;69061;52.236;5.188;2023-07-20T06:00:51;5.75;;;2.80;;
64907;SDS011;69061;52.236;5.188;2023-07-20T06:03:18;4.93;;;2.58;;
64907;SDS011;69061;52.236;5.188;2023-07-20T06:05:46;5.93;;;2.80;;
64907;SDS011;69061;52.236;5.188;2023-07-20T06:08:15;6.03;;;2.58;;
64907;SDS011;69061;52.236;5.188;2023-07-20T06:10:42;4.72;;;2.78;;
64907;SDS011;69061;52.236;5.188;2023-07-20T06:13:09;2.65;;;2.42;;
64907;SDS011;69061;52.236;5.188;2023-07-20T06:15:36;3.75;;;2.70;;
64907;SDS011;69061;52.236;5.188;2023-07-20T06:18:04;3.42;;;2.88;;
64907;SDS011;69061;52.236;5.188;2023-07-20T06:20:31;2.63;;;2.40;;
64907;SDS011;69061;52.236;5.188;2023-07-20T06:22:58;2.83;;;2.53;;
64907;SDS011;69061;52.236;5.188;2023-07-20T06:25:27;2.83;;;2.50;;
64907;SDS011;69061;52.236;5.188;2023-07-20T06:27:54;6.53;;;2.50;;
64907;SDS011;69061;52.236;5.188;2023-07-20T06:30:23;4.53;;;2.70;;
64907;SDS011;69061;52.236;5.188;2023-07-20T06:32:51;3.38;;;2.75;;
64907;SDS011;69061;52.236;5.188;2023-07-20T06:35:18;3.47;;;2.70;;
64907;SDS011;69061;52.236;5.188;2023-07-20T06:37:45;3.97;;;2.50;;
64907;SDS011;69061;52.236;5.188;2023-07-20T06:40:12;3.47;;;2.60;;
64907;SDS011;69061;52.236;5.188;2023-07-20T06:42:41;4.65;;;2.42;;
64907;SDS011;69061;52.236;5.188;2023-07-20T06:45:08;6.38;;;2.80;;
64907;SDS011;69061;52.236;5.188;2023-07-20T06:47:37;3.90;;;2.65;;
64907;SDS011;69061;52.236;5.188;2023-07-20T06:50:05;15.75;;;3.45;;
64907;SDS011;69061;52.236;5.188;2023-07-20T06:52:32;2.65;;;2.38;;
64907;SDS011;69061;52.236;5.188;2023-07-20T06:54:59;5.55;;;2.53;;
64907;SDS011;69061;52.236;5.188;2023-07-20T06:57:28;4.22;;;2.40;;
64907;SDS011;69061;52.236;5.188;2023-07-20T06:59:59;7.55;;;2.88;;
64907;SDS011;69061;52.236;5.188;2023-07-20T07:02:26;3.92;;;2.65;;
64907;SDS011;69061;52.236;5.188;2023-07-20T07:04:53;5.35;;;2.97;;
64907;SDS011;69061;52.236;5.188;2023-07-20T07:07:21;3.33;;;2.40;;
64907;SDS011;69061;52.236;5.188;2023-07-20T07:09:48;3.97;;;2.13;;
64907;SDS011;69061;52.236;5.188;2023-07-20T07:12:15;2.15;;;2.00;;
64907;SDS011;69061;52.236;5.188;2023-07-20T07:14:42;4.50;;;2.92;;
64907;SDS011;69061;52.236;5.188;2023-07-20T07:17:11;4.80;;;2.60;;
64907;SDS011;69061;52.236;5.188;2023-07-20T07:19:38;4.20;;;2.45;;
64907;SDS011;69061;52.236;5.188;2023-07-20T07:22:05;5.10;;;2.50;;
64907;SDS011;69061;52.236;5.188;2023-07-20T07:24:32;4.72;;;2.28;;
64907;SDS011;69061;52.236;5.188;2023-07-20T07:27:00;3.17;;;2.30;;
64907;SDS011;69061;52.236;5.188;2023-07-20T07:29:27;6.00;;;2.58;;
64907;SDS011;69061;52.236;5.188;2023-07-20T07:31:54;4.60;;;2.85;;
64907;SDS011;69061;52.236;5.188;2023-07-20T07:34:22;4.35;;;2.30;;
64907;SDS011;69061;52.236;5.188;2023-07-20T07:36:49;2.42;;;2.15;;
64907;SDS011;69061;52.236;5.188;2023-07-20T07:39:19;3.13;;;2.28;;
64907;SDS011;69061;52.236;5.188;2023-07-20T07:41:46;2.45;;;2.20;;
64907;SDS011;69061;52.236;5.188;2023-07-20T07:44:14;5.75;;;2.50;;
64907;SDS011;69061;52.236;5.188;2023-07-20T07:46:41;4.85;;;2.88;;
64907;SDS011;69061;52.236;5.188;2023-07-20T07:49:08;3.45;;;2.30;;
64907;SDS011;69061;52.236;5.188;2023-07-20T07:51:37;4.40;;;2.75;;
64907;SDS011;69061;52.236;5.188;2023-07-20T07:54:04;5.55;;;2.38;;
64907;SDS011;69061;52.236;5.188;2023-07-20T07:56:31;6.05;;;2.50;;
64907;SDS011;69061;52.236;5.188;2023-07-20T07:58:59;3.90;;;2.70;;
64907;SDS011;69061;52.236;5.188;2023-07-20T08:01:26;4.18;;;2.50;;
64907;SDS011;69061;52.236;5.188;2023-07-20T08:03:53;3.72;;;2.63;;
64907;SDS011;69061;52.236;5.188;2023-07-20T08:06:20;2.05;;;1.88;;
64907;SDS011;69061;52.236;5.188;2023-07-20T08:08:48;3.50;;;2.17;;
64907;SDS011;69061;52.236;5.188;2023-07-20T08:11:15;3.10;;;2.13;;
64907;SDS011;69061;52.236;5.188;2023-07-20T08:13:44;2.92;;;2.33;;
64907;SDS011;69061;52.236;5.188;2023-07-20T08:16:10;5.80;;;2.60;;
64907;SDS011;69061;52.236;5.188;2023-07-20T08:18:37;3.08;;;1.98;;
64907;SDS011;69061;52.236;5.188;2023-07-20T08:21:04;3.95;;;2.60;;
64907;SDS011;69061;52.236;5.188;2023-07-20T08:23:31;2.30;;;2.20;;
64907;SDS011;69061;52.236;5.188;2023-07-20T08:26:00;2.63;;;2.00;;
64907;SDS011;69061;52.236;5.188;2023-07-20T08:28:27;3.08;;;2.13;;
64907;SDS011;69061;52.236;5.188;2023-07-20T08:30:54;2.63;;;2.10;;
64907;SDS011;69061;52.236;5.188;2023-07-20T08:33:21;2.97;;;2.55;;
64907;SDS011;69061;52.236;5.188;2023-07-20T08:35:48;5.68;;;2.88;;
64907;SDS011;69061;52.236;5.188;2023-07-20T08:38:17;4.80;;;2.85;;
64907;SDS011;69061;52.236;5.188;2023-07-20T08:40:45;4.00;;;2.33;;
64907;SDS011;69061;52.236;5.188;2023-07-20T08:43:14;4.15;;;1.98;;
64907;SDS011;69061;52.236;5.188;2023-07-20T08:45:44;3.33;;;2.30;;
64907;SDS011;69061;52.236;5.188;2023-07-20T08:48:24;4.30;;;2.45;;
64907;SDS011;69061;52.236;5.188;2023-07-20T08:50:51;6.93;;;2.60;;
64907;SDS011;69061;52.236;5.188;2023-07-20T08:53:18;5.93;;;2.35;;
64907;SDS011;69061;52.236;5.188;2023-07-20T08:55:48;5.45;;;2.47;;
64907;SDS011;69061;52.236;5.188;2023-07-20T08:58:19;4.45;;;2.25;;
64907;SDS011;69061;52.236;5.188;2023-07-20T09:00:46;2.10;;;1.90;;
64907;SDS011;69061;52.236;5.188;2023-07-20T09:03:15;3.65;;;2.35;;
64907;SDS011;69061;52.236;5.188;2023-07-20T09:05:42;3.30;;;2.47;;
64907;SDS011;69061;52.236;5.188;2023-07-20T09:08:09;6.75;;;2.28;;
64907;SDS011;69061;52.236;5.188;2023-07-20T09:10:37;2.30;;;2.10;;
64907;SDS011;69061;52.236;5.188;2023-07-20T09:13:04;2.17;;;1.98;;
64907;SDS011;69061;52.236;5.188;2023-07-20T09:15:34;5.85;;;2.28;;
64907;SDS011;69061;52.236;5.188;2023-07-20T09:18:02;2.50;;;2.00;;
64907;SDS011;69061;52.236;5.188;2023-07-20T09:20:31;1.98;;;1.88;;
64907;SDS011;69061;52.236;5.188;2023-07-20T09:22:58;3.05;;;2.20;;
64907;SDS011;69061;52.236;5.188;2023-07-20T09:25:25;1.90;;;1.80;;
64907;SDS011;69061;52.236;5.188;2023-07-20T09:27:53;2.80;;;2.15;;
64907;SDS011;69061;52.236;5.188;2023-07-20T09:30:21;3.47;;;2.10;;
64907;SDS011;69061;52.236;5.188;2023-07-20T09:32:54;2.40;;;1.90;;
64907;SDS011;69061;52.236;5.188;2023-07-20T09:35:22;2.78;;;2.00;;
64907;SDS011;69061;52.236;5.188;2023-07-20T09:37:53;2.40;;;2.20;;
64907;SDS011;69061;52.236;5.188;2023-07-20T09:40:21;1.75;;;1.65;;
64907;SDS011;69061;52.236;5.188;2023-07-20T09:42:48;2.17;;;1.98;;
64907;SDS011;69061;52.236;5.188;2023-07-20T09:45:25;2.00;;;1.90;;
64907;SDS011;69061;52.236;5.188;2023-07-20T09:48:04;2.33;;;1.92;;
64907;SDS011;69061;52.236;5.188;2023-07-20T09:50:31;3.47;;;2.03;;
64907;SDS011;69061;52.236;5.188;2023-07-20T09:52:58;2.17;;;1.83;;
64907;SDS011;69061;52.236;5.188;2023-07-20T09:55:28;2.10;;;2.00;;
64907;SDS011;69061;52.236;5.188;2023-07-20T09:57:55;1.90;;;1.70;;
64907;SDS011;69061;52.236;5.188;2023-07-20T10:00:23;1.92;;;1.80;;
64907;SDS011;69061;52.236;5.188;2023-07-20T10:02:49;1.92;;;1.83;;
64907;SDS011;69061;52.236;5.188;2023-07-20T10:05:19;2.42;;;2.20;;
64907;SDS011;69061;52.236;5.188;2023-07-20T10:07:48;2.33;;;1.80;;
64907;SDS011;69061;52.236;5.188;2023-07-20T10:10:17;2.42;;;1.92;;
64907;SDS011;69061;52.236;5.188;2023-07-20T10:12:47;2.42;;;2.20;;
64907;SDS011;69061;52.236;5.188;2023-07-20T10:15:18;2.45;;;2.10;;
64907;SDS011;69061;52.236;5.188;2023-07-20T10:17:57;3.35;;;2.45;;
64907;SDS011;69061;52.236;5.188;2023-07-20T10:20:30;3.35;;;2.05;;
64907;SDS011;69061;52.236;5.188;2023-07-20T10:23:01;3.78;;;2.15;;
64907;SDS011;69061;52.236;5.188;2023-07-20T10:25:28;2.70;;;2.20;;
64907;SDS011;69061;52.236;5.188;2023-07-20T10:27:56;3.35;;;2.20;;
64907;SDS011;69061;52.236;5.188;2023-07-20T10:30:23;2.33;;;2.00;;
64907;SDS011;69061;52.236;5.188;2023-07-20T10:32:54;2.47;;;2.00;;
64907;SDS011;69061;52.236;5.188;2023-07-20T10:35:21;3.35;;;2.00;;
64907;SDS011;69061;52.236;5.188;2023-07-20T10:37:53;3.35;;;2.10;;
64907;SDS011;69061;52.236;5.188;2023-07-20T10:40:25;2.10;;;2.00;;
64907;SDS011;69061;52.236;5.188;2023-07-20T10:42:57;2.40;;;2.20;;
64907;SDS011;69061;52.236;5.188;2023-07-20T10:45:35;2.10;;;2.00;;
64907;SDS011;69061;52.236;5.188;2023-07-20T10:48:03;3.25;;;2.22;;
64907;SDS011;69061;52.236;5.188;2023-07-20T10:50:32;2.00;;;1.90;;
64907;SDS011;69061;52.236;5.188;2023-07-20T10:53:14;2.83;;;1.90;;
64907;SDS011;69061;52.236;5.188;2023-07-20T10:55:43;2.88;;;2.40;;
64907;SDS011;69061;52.236;5.188;2023-07-20T10:58:12;2.85;;;2.30;;
64907;SDS011;69061;52.236;5.188;2023-07-20T11:00:56;2.92;;;2.60;;
64907;SDS011;69061;52.236;5.188;2023-07-20T11:03:28;2.95;;;2.47;;
64907;SDS011;69061;52.236;5.188;2023-07-20T11:05:56;3.08;;;2.60;;
64907;SDS011;69061;52.236;5.188;2023-07-20T11:08:44;3.30;;;2.70;;
64907;SDS011;69061;52.236;5.188;2023-07-20T11:11:23;3.53;;;2.63;;
64907;SDS011;69061;52.236;5.188;2023-07-20T11:13:55;3.33;;;2.58;;
64907;SDS011;69061;52.236;5.188;2023-07-20T11:19:14;2.90;;;2.60;;
64907;SDS011;69061;52.236;5.188;2023-07-20T11:21:43;3.00;;;2.70;;
64907;SDS011;69061;52.236;5.188;2023-07-20T11:24:12;4.22;;;2.60;;
64907;SDS011;69061;52.236;5.188;2023-07-20T11:26:41;5.30;;;2.45;;
64907;SDS011;69061;52.236;5.188;2023-07-20T11:29:10;3.95;;;2.88;;
64907;SDS011;69061;52.236;5.188;2023-07-20T11:31:38;3.35;;;2.47;;
64907;SDS011;69061;52.236;5.188;2023-07-20T11:34:10;3.25;;;2.50;;
64907;SDS011;69061;52.236;5.188;2023-07-20T11:36:38;3.05;;;2.50;;
64907;SDS011;69061;52.236;5.188;2023-07-20T11:39:08;3.70;;;2.70;;
64907;SDS011;69061;52.236;5.188;2023-07-20T11:41:38;2.88;;;2.40;;
64907;SDS011;69061;52.236;5.188;2023-07-20T11:44:10;5.03;;;2.78;;
64907;SDS011;69061;52.236;5.188;2023-07-20T11:46:38;4.55;;;2.60;;
64907;SDS011;69061;52.236;5.188;2023-07-20T11:49:11;5.18;;;2.72;;
64907;SDS011;69061;52.236;5.188;2023-07-20T11:51:39;4.30;;;3.00;;
64907;SDS011;69061;52.236;5.188;2023-07-20T11:54:07;4.68;;;2.92;;
64907;SDS011;69061;52.236;5.188;2023-07-20T11:56:38;6.03;;;3.00;;
64907;SDS011;69061;52.236;5.188;2023-07-20T11:59:09;5.73;;;2.80;;
64907;SDS011;69061;52.236;5.188;2023-07-20T12:01:40;3.08;;;2.70;;
64907;SDS011;69061;52.236;5.188;2023-07-20T12:04:07;3.80;;;2.38;;
64907;SDS011;69061;52.236;5.188;2023-07-20T12:06:36;4.30;;;2.50;;
64907;SDS011;69061;52.236;5.188;2023-07-20T12:09:03;4.43;;;3.13;;
64907;SDS011;69061;52.236;5.188;2023-07-20T12:11:31;4.15;;;2.60;;
64907;SDS011;69061;52.236;5.188;2023-07-20T12:14:00;3.42;;;2.90;;
64907;SDS011;69061;52.236;5.188;2023-07-20T12:16:27;3.30;;;3.00;;
64907;SDS011;69061;52.236;5.188;2023-07-20T12:19:02;4.28;;;2.92;;
64907;SDS011;69061;52.236;5.188;2023-07-20T12:21:29;3.38;;;2.53;;
64907;SDS011;69061;52.236;5.188;2023-07-20T12:23:56;3.22;;;2.72;;
64907;SDS011;69061;52.236;5.188;2023-07-20T12:26:24;3.75;;;2.47;;
64907;SDS011;69061;52.236;5.188;2023-07-20T12:28:51;5.28;;;2.80;;
64907;SDS011;69061;52.236;5.188;2023-07-20T12:31:20;4.20;;;2.67;;
64907;SDS011;69061;52.236;5.188;2023-07-20T12:33:49;3.50;;;2.70;;
64907;SDS011;69061;52.236;5.188;2023-07-20T12:36:16;2.50;;;2.30;;
64907;SDS011;69061;52.236;5.188;2023-07-20T12:38:43;2.47;;;2.28;;
64907;SDS011;69061;52.236;5.188;2023-07-20T12:41:11;3.00;;;2.58;;
64907;SDS011;69061;52.236;5.188;2023-07-20T12:43:39;3.60;;;2.78;;
64907;SDS011;69061;52.236;5.188;2023-07-20T12:46:06;7.20;;;3.15;;
64907;SDS011;69061;52.236;5.188;2023-07-20T12:48:35;4.78;;;2.60;;
64907;SDS011;69061;52.236;5.188;2023-07-20T12:51:03;3.17;;;2.30;;
64907;SDS011;69061;52.236;5.188;2023-07-20T12:53:31;3.75;;;2.55;;
64907;SDS011;69061;52.236;5.188;2023-07-20T12:55:58;4.00;;;2.78;;
64907;SDS011;69061;52.236;5.188;2023-07-20T12:58:25;6.25;;;2.50;;
64907;SDS011;69061;52.236;5.188;2023-07-20T13:00:52;4.70;;;2.60;;
64907;SDS011;69061;52.236;5.188;2023-07-20T13:03:19;3.72;;;2.65;;
64907;SDS011;69061;52.236;5.188;2023-07-20T13:05:47;4.95;;;2.70;;
64907;SDS011;69061;52.236;5.188;2023-07-20T13:08:15;4.35;;;2.63;;
64907;SDS011;69061;52.236;5.188;2023-07-20T13:10:43;4.22;;;2.60;;
64907;SDS011;69061;52.236;5.188;2023-07-20T13:13:10;3.63;;;2.30;;
64907;SDS011;69061;52.236;5.188;2023-07-20T13:15:40;3.97;;;2.53;;
64907;SDS011;69061;52.236;5.188;2023-07-20T13:18:09;3.95;;;2.33;;
64907;SDS011;69061;52.236;5.188;2023-07-20T13:20:36;5.25;;;2.60;;
64907;SDS011;69061;52.236;5.188;2023-07-20T13:23:04;9.63;;;2.95;;
64907;SDS011;69061;52.236;5.188;2023-07-20T13:25:31;4.45;;;2.78;;
64907;SDS011;69061;52.236;5.188;2023-07-20T13:27:57;2.63;;;2.42;;
64907;SDS011;69061;52.236;5.188;2023-07-20T13:30:25;2.65;;;2.33;;
64907;SDS011;69061;52.236;5.188;2023-07-20T13:32:51;2.40;;;2.20;;
64907;SDS011;69061;52.236;5.188;2023-07-20T13:35:18;3.80;;;2.45;;
64907;SDS011;69061;52.236;5.188;2023-07-20T13:37:45;2.28;;;2.08;;
64907;SDS011;69061;52.236;5.188;2023-07-20T13:40:17;7.68;;;2.80;;
64907;SDS011;69061;52.236;5.188;2023-07-20T13:42:44;2.83;;;2.30;;
64907;SDS011;69061;52.236;5.188;2023-07-20T13:45:11;2.28;;;2.10;;
64907;SDS011;69061;52.236;5.188;2023-07-20T13:47:38;2.97;;;2.63;;
64907;SDS011;69061;52.236;5.188;2023-07-20T13:50:05;2.75;;;2.40;;
64907;SDS011;69061;52.236;5.188;2023-07-20T13:52:33;4.97;;;2.75;;
64907;SDS011;69061;52.236;5.188;2023-07-20T13:55:01;3.80;;;2.45;;
64907;SDS011;69061;52.236;5.188;2023-07-20T13:57:32;2.50;;;2.30;;
64907;SDS011;69061;52.236;5.188;2023-07-20T13:59:59;3.45;;;2.25;;
64907;SDS011;69061;52.236;5.188;2023-07-20T14:02:27;4.00;;;2.20;;
64907;SDS011;69061;52.236;5.188;2023-07-20T14:04:54;2.58;;;2.35;;
64907;SDS011;69061;52.236;5.188;2023-07-20T14:07:21;3.50;;;2.90;;
64907;SDS011;69061;52.236;5.188;2023-07-20T14:09:48;5.97;;;2.72;;
64907;SDS011;69061;52.236;5.188;2023-07-20T14:12:15;2.38;;;2.13;;
64907;SDS011;69061;52.236;5.188;2023-07-20T14:14:43;3.20;;;2.30;;
64907;SDS011;69061;52.236;5.188;2023-07-20T14:17:10;3.58;;;2.35;;
64907;SDS011;69061;52.236;5.188;2023-07-20T14:19:37;4.25;;;2.20;;
64907;SDS011;69061;52.236;5.188;2023-07-20T14:22:05;5.85;;;2.53;;
64907;SDS011;69061;52.236;5.188;2023-07-20T14:24:32;3.20;;;2.50;;
64907;SDS011;69061;52.236;5.188;2023-07-20T14:26:59;3.25;;;2.50;;
64907;SDS011;69061;52.236;5.188;2023-07-20T14:29:27;2.85;;;2.45;;
64907;SDS011;69061;52.236;5.188;2023-07-20T14:31:57;5.72;;;2.58;;
64907;SDS011;69061;52.236;5.188;2023-07-20T14:34:24;3.17;;;2.83;;
64907;SDS011;69061;52.236;5.188;2023-07-20T14:36:51;3.60;;;2.65;;
64907;SDS011;69061;52.236;5.188;2023-07-20T14:39:18;5.97;;;2.80;;
64907;SDS011;69061;52.236;5.188;2023-07-20T14:41:45;15.02;;;2.95;;
64907;SDS011;69061;52.236;5.188;2023-07-20T14:44:12;4.22;;;2.53;;
64907;SDS011;69061;52.236;5.188;2023-07-20T14:46:39;2.60;;;2.40;;
64907;SDS011;69061;52.236;5.188;2023-07-20T14:49:07;3.60;;;2.67;;
64907;SDS011;69061;52.236;5.188;2023-07-20T14:51:35;4.80;;;2.88;;
64907;SDS011;69061;52.236;5.188;2023-07-20T14:54:08;4.32;;;2.50;;
64907;SDS011;69061;52.236;5.188;2023-07-20T14:56:37;5.20;;;2.42;;
64907;SDS011;69061;52.236;5.188;2023-07-20T14:59:05;3.72;;;2.40;;